SCO15CS EGPH-EGAA
Flight info
| Callsign | SCO15CS |
|---|---|
| Flight time | 0h 30m |
| Altitude | 22000 |
| Route | GOSAM P600 BLACA DCT BELZU |
| Aircraft | A320/M-SDE3FGHIRWY/LB1 |
Departure
| Time | 2026-05-06 23:23 |
|---|---|
| Airport | Edinburgh Airport (EGPH) |
Arrival
| Time | 2026-05-06 23:54 |
|---|---|
| Airport | Belfast International Airport (EGAA) |
| Time | Latitude | Longitude | Altitude | Speed | Heading |
|---|---|---|---|---|---|
| 2026-05-06 23:06 | 55.94981 | -3.36247 | 113 ft | 0 kts | 117° |
| 2026-05-06 23:17 | 55.94986 | -3.36264 | 113 ft | 3 kts | 117° |
| 2026-05-06 23:17 | 55.94995 | -3.36296 | 112 ft | 3 kts | 117° |
| 2026-05-06 23:18 | 55.95004 | -3.36328 | 115 ft | 3 kts | 117° |
| 2026-05-06 23:18 | 55.95013 | -3.36360 | 112 ft | 3 kts | 117° |
| 2026-05-06 23:18 | 55.95021 | -3.36386 | 112 ft | 3 kts | 117° |
| 2026-05-06 23:20 | 55.95035 | -3.36377 | 115 ft | 4 kts | 347° |
| 2026-05-06 23:20 | 55.95098 | -3.36387 | 114 ft | 4 kts | 62° |
| 2026-05-06 23:20 | 55.95147 | -3.36244 | 116 ft | 20 kts | 58° |
| 2026-05-06 23:21 | 55.95216 | -3.36039 | 116 ft | 18 kts | 59° |
| 2026-05-06 23:21 | 55.95280 | -3.35852 | 112 ft | 17 kts | 58° |
| 2026-05-06 23:21 | 55.95338 | -3.35680 | 115 ft | 15 kts | 59° |
| 2026-05-06 23:21 | 55.95407 | -3.35477 | 112 ft | 21 kts | 59° |
| 2026-05-06 23:22 | 55.95505 | -3.35448 | 113 ft | 16 kts | 329° |
| 2026-05-06 23:22 | 55.95556 | -3.35599 | 113 ft | 16 kts | 252° |
| 2026-05-06 23:22 | 55.95485 | -3.35817 | 113 ft | 40 kts | 239° |
| 2026-05-06 23:22 | 55.95207 | -3.36639 | 114 ft | 110 kts | 239° |
| 2026-05-06 23:23 | 55.94719 | -3.38063 | 235 ft | 149 kts | 234° |
| 2026-05-06 23:23 | 55.94127 | -3.39700 | 725 ft | 165 kts | 236° |
| 2026-05-06 23:23 | 55.93479 | -3.41561 | 1184 ft | 188 kts | 236° |
| 2026-05-06 23:23 | 55.92750 | -3.43672 | 1587 ft | 213 kts | 235° |
| 2026-05-06 23:24 | 55.91930 | -3.46046 | 2126 ft | 236 kts | 235° |
| 2026-05-06 23:24 | 55.91059 | -3.48584 | 3001 ft | 243 kts | 236° |
| 2026-05-06 23:24 | 55.90375 | -3.51363 | 3967 ft | 250 kts | 256° |
| 2026-05-06 23:24 | 55.90065 | -3.54438 | 4959 ft | 254 kts | 258° |
| 2026-05-06 23:25 | 55.89763 | -3.57559 | 5909 ft | 258 kts | 258° |
| 2026-05-06 23:25 | 55.89456 | -3.60741 | 6819 ft | 263 kts | 258° |
| 2026-05-06 23:25 | 55.89140 | -3.63972 | 7728 ft | 266 kts | 259° |
| 2026-05-06 23:25 | 55.88818 | -3.67227 | 8658 ft | 269 kts | 259° |
| 2026-05-06 23:26 | 55.88486 | -3.70531 | 9591 ft | 272 kts | 259° |
| 2026-05-06 23:26 | 55.88149 | -3.73872 | 10311 ft | 282 kts | 259° |
| 2026-05-06 23:26 | 55.87788 | -3.77451 | 10622 ft | 304 kts | 259° |
| 2026-05-06 23:26 | 55.87408 | -3.81222 | 11263 ft | 313 kts | 259° |
| 2026-05-06 23:27 | 55.87025 | -3.85060 | 12041 ft | 317 kts | 260° |
| 2026-05-06 23:27 | 55.86639 | -3.88938 | 12849 ft | 320 kts | 260° |
| 2026-05-06 23:27 | 55.86254 | -3.92809 | 13643 ft | 323 kts | 260° |
| 2026-05-06 23:27 | 55.85858 | -3.96772 | 14386 ft | 326 kts | 260° |
| 2026-05-06 23:28 | 55.85457 | -4.00747 | 15119 ft | 328 kts | 260° |
| 2026-05-06 23:28 | 55.85052 | -4.04764 | 15840 ft | 331 kts | 260° |
| 2026-05-06 23:28 | 55.84631 | -4.08798 | 16539 ft | 333 kts | 257° |
| 2026-05-06 23:28 | 55.83766 | -4.12643 | 17215 ft | 338 kts | 240° |
| 2026-05-06 23:29 | 55.82222 | -4.15907 | 17898 ft | 346 kts | 223° |
| 2026-05-06 23:29 | 55.80250 | -4.18408 | 18543 ft | 350 kts | 217° |
| 2026-05-06 23:29 | 55.78225 | -4.20858 | 19127 ft | 353 kts | 218° |
| 2026-05-06 23:29 | 55.76216 | -4.23315 | 19701 ft | 356 kts | 218° |
| 2026-05-06 23:30 | 55.74174 | -4.25839 | 20280 ft | 360 kts | 218° |
| 2026-05-06 23:30 | 55.72117 | -4.28401 | 20857 ft | 363 kts | 219° |
| 2026-05-06 23:30 | 55.70045 | -4.30988 | 21391 ft | 367 kts | 219° |
| 2026-05-06 23:30 | 55.67943 | -4.33612 | 21870 ft | 371 kts | 219° |
| 2026-05-06 23:31 | 55.65830 | -4.36240 | 21986 ft | 368 kts | 219° |
| 2026-05-06 23:31 | 55.63743 | -4.38819 | 22006 ft | 368 kts | 219° |
| 2026-05-06 23:31 | 55.61639 | -4.41415 | 22012 ft | 369 kts | 219° |
| 2026-05-06 23:31 | 55.59529 | -4.44012 | 22009 ft | 369 kts | 219° |
| 2026-05-06 23:32 | 55.57419 | -4.46603 | 22009 ft | 369 kts | 219° |
| 2026-05-06 23:32 | 55.55309 | -4.49190 | 22008 ft | 369 kts | 219° |
| 2026-05-06 23:32 | 55.53203 | -4.51768 | 22003 ft | 369 kts | 219° |
| 2026-05-06 23:32 | 55.51093 | -4.54347 | 22002 ft | 369 kts | 219° |
| 2026-05-06 23:33 | 55.48987 | -4.56919 | 22005 ft | 369 kts | 219° |
| 2026-05-06 23:33 | 55.46878 | -4.59497 | 22008 ft | 369 kts | 219° |
| 2026-05-06 23:33 | 55.44770 | -4.62075 | 22001 ft | 369 kts | 219° |
| 2026-05-06 23:33 | 55.42666 | -4.64645 | 21985 ft | 369 kts | 219° |
| 2026-05-06 23:34 | 55.40556 | -4.67219 | 21984 ft | 369 kts | 219° |
| 2026-05-06 23:34 | 55.38440 | -4.69794 | 21989 ft | 369 kts | 219° |
| 2026-05-06 23:34 | 55.36333 | -4.72348 | 21919 ft | 365 kts | 218° |
| 2026-05-06 23:34 | 55.34258 | -4.74848 | 21611 ft | 358 kts | 218° |
| 2026-05-06 23:35 | 55.32212 | -4.77311 | 21174 ft | 355 kts | 218° |
| 2026-05-06 23:35 | 55.30082 | -4.79484 | 20693 ft | 355 kts | 211° |
| 2026-05-06 23:35 | 55.27885 | -4.81424 | 20312 ft | 350 kts | 211° |
| 2026-05-06 23:35 | 55.25757 | -4.83295 | 20185 ft | 331 kts | 211° |
| 2026-05-06 23:36 | 55.23756 | -4.85039 | 19914 ft | 314 kts | 211° |
| 2026-05-06 23:36 | 55.21831 | -4.86721 | 19389 ft | 306 kts | 211° |
| 2026-05-06 23:36 | 55.19938 | -4.88382 | 18817 ft | 302 kts | 210° |
| 2026-05-06 23:36 | 55.18070 | -4.90026 | 18240 ft | 299 kts | 210° |
| 2026-05-06 23:37 | 55.16217 | -4.91658 | 17741 ft | 298 kts | 210° |
| 2026-05-06 23:37 | 55.14364 | -4.93290 | 17368 ft | 298 kts | 210° |
| 2026-05-06 23:37 | 55.12512 | -4.94910 | 16982 ft | 298 kts | 210° |
| 2026-05-06 23:37 | 55.10656 | -4.96529 | 16611 ft | 297 kts | 210° |
| 2026-05-06 23:38 | 55.08803 | -4.98142 | 16222 ft | 297 kts | 210° |
| 2026-05-06 23:38 | 55.06954 | -4.99752 | 15841 ft | 297 kts | 209° |
| 2026-05-06 23:38 | 55.05117 | -5.01348 | 15602 ft | 292 kts | 209° |
| 2026-05-06 23:38 | 55.03287 | -5.02937 | 15151 ft | 296 kts | 209° |
| 2026-05-06 23:39 | 55.01470 | -5.04513 | 14968 ft | 288 kts | 209° |
| 2026-05-06 23:39 | 54.99689 | -5.06060 | 14711 ft | 285 kts | 209° |
| 2026-05-06 23:39 | 54.97944 | -5.07575 | 14406 ft | 283 kts | 209° |
| 2026-05-06 23:39 | 54.96181 | -5.09100 | 14098 ft | 282 kts | 209° |
| 2026-05-06 23:40 | 54.94409 | -5.10628 | 13688 ft | 278 kts | 209° |
| 2026-05-06 23:40 | 54.92704 | -5.12101 | 13132 ft | 276 kts | 209° |
| 2026-05-06 23:40 | 54.90958 | -5.13613 | 12700 ft | 279 kts | 210° |
| 2026-05-06 23:40 | 54.89404 | -5.15476 | 12257 ft | 267 kts | 225° |
| 2026-05-06 23:41 | 54.88238 | -5.17822 | 12079 ft | 248 kts | 238° |
| 2026-05-06 23:41 | 54.87473 | -5.20388 | 11816 ft | 235 kts | 250° |
| 2026-05-06 23:41 | 54.86954 | -5.23054 | 11355 ft | 231 kts | 251° |
| 2026-05-06 23:41 | 54.86447 | -5.25687 | 10881 ft | 230 kts | 251° |
| 2026-05-06 23:42 | 54.85940 | -5.28316 | 10506 ft | 230 kts | 252° |
| 2026-05-06 23:42 | 54.85434 | -5.30946 | 10177 ft | 229 kts | 252° |
| 2026-05-06 23:42 | 54.84929 | -5.33571 | 9851 ft | 230 kts | 251° |
| 2026-05-06 23:42 | 54.84422 | -5.36198 | 9484 ft | 230 kts | 251° |
| 2026-05-06 23:43 | 54.83915 | -5.38823 | 9138 ft | 229 kts | 251° |
| 2026-05-06 23:43 | 54.83410 | -5.41438 | 8811 ft | 228 kts | 251° |
| 2026-05-06 23:43 | 54.82904 | -5.44048 | 8471 ft | 228 kts | 251° |
| 2026-05-06 23:43 | 54.82397 | -5.46657 | 8130 ft | 228 kts | 251° |
| 2026-05-06 23:44 | 54.81886 | -5.49270 | 7767 ft | 229 kts | 250° |
| 2026-05-06 23:44 | 54.81383 | -5.51844 | 7599 ft | 219 kts | 250° |
| 2026-05-06 23:44 | 54.80913 | -5.54256 | 7460 ft | 203 kts | 250° |
| 2026-05-06 23:44 | 54.80479 | -5.56472 | 7321 ft | 187 kts | 250° |
| 2026-05-06 23:45 | 54.80063 | -5.58588 | 6869 ft | 187 kts | 250° |
| 2026-05-06 23:45 | 54.79642 | -5.60722 | 6420 ft | 187 kts | 249° |
| 2026-05-06 23:45 | 54.79223 | -5.62853 | 5959 ft | 186 kts | 249° |
| 2026-05-06 23:45 | 54.78805 | -5.64982 | 5603 ft | 187 kts | 249° |
| 2026-05-06 23:46 | 54.78386 | -5.67109 | 5284 ft | 186 kts | 249° |
| 2026-05-06 23:46 | 54.77968 | -5.69231 | 4978 ft | 187 kts | 249° |
| 2026-05-06 23:46 | 54.77548 | -5.71356 | 4658 ft | 186 kts | 249° |
| 2026-05-06 23:46 | 54.77131 | -5.73476 | 4339 ft | 185 kts | 249° |
| 2026-05-06 23:47 | 54.76716 | -5.75578 | 4061 ft | 183 kts | 249° |
| 2026-05-06 23:47 | 54.76303 | -5.77661 | 4019 ft | 183 kts | 249° |
| 2026-05-06 23:47 | 54.75887 | -5.79753 | 3969 ft | 184 kts | 249° |
| 2026-05-06 23:47 | 54.75473 | -5.81839 | 3900 ft | 182 kts | 249° |
| 2026-05-06 23:48 | 54.75078 | -5.83835 | 3808 ft | 169 kts | 249° |
| 2026-05-06 23:48 | 54.74702 | -5.85728 | 3745 ft | 164 kts | 249° |
| 2026-05-06 23:48 | 54.74331 | -5.87587 | 3673 ft | 163 kts | 248° |
| 2026-05-06 23:48 | 54.73968 | -5.89409 | 3606 ft | 162 kts | 248° |
| 2026-05-06 23:49 | 54.73624 | -5.91260 | 3536 ft | 162 kts | 251° |
| 2026-05-06 23:49 | 54.73272 | -5.93073 | 3496 ft | 154 kts | 246° |
| 2026-05-06 23:49 | 54.72880 | -5.94750 | 3404 ft | 151 kts | 244° |
| 2026-05-06 23:49 | 54.72463 | -5.96404 | 3239 ft | 148 kts | 243° |
| 2026-05-06 23:50 | 54.72050 | -5.97994 | 3055 ft | 143 kts | 242° |
| 2026-05-06 23:50 | 54.71236 | -6.01073 | 2677 ft | 139 kts | 242° |
| 2026-05-06 23:50 | 54.70833 | -6.02589 | 2475 ft | 138 kts | 241° |
| 2026-05-06 23:51 | 54.70431 | -6.04095 | 2283 ft | 138 kts | 241° |
| 2026-05-06 23:51 | 54.70031 | -6.05596 | 2089 ft | 137 kts | 240° |
| 2026-05-06 23:51 | 54.69634 | -6.07083 | 1903 ft | 136 kts | 240° |
| 2026-05-06 23:51 | 54.69237 | -6.08568 | 1716 ft | 136 kts | 240° |
| 2026-05-06 23:52 | 54.68840 | -6.10052 | 1511 ft | 136 kts | 240° |
| 2026-05-06 23:52 | 54.68441 | -6.11542 | 1326 ft | 137 kts | 241° |
| 2026-05-06 23:52 | 54.68041 | -6.13039 | 1115 ft | 137 kts | 242° |
| 2026-05-06 23:52 | 54.67645 | -6.14546 | 911 ft | 138 kts | 242° |
| 2026-05-06 23:53 | 54.67238 | -6.16048 | 728 ft | 138 kts | 243° |
| 2026-05-06 23:53 | 54.66835 | -6.17554 | 557 ft | 139 kts | 243° |
| 2026-05-06 23:53 | 54.66432 | -6.19058 | 392 ft | 139 kts | 242° |
| 2026-05-06 23:53 | 54.66030 | -6.20546 | 275 ft | 128 kts | 242° |
| 2026-05-06 23:54 | 54.65738 | -6.21622 | 272 ft | 54 kts | 245° |
| 2026-05-06 23:54 | 54.65591 | -6.22166 | 276 ft | 43 kts | 245° |
| 2026-05-06 23:54 | 54.65490 | -6.22544 | 272 ft | 23 kts | 248° |
| 2026-05-06 23:54 | 54.65557 | -6.22725 | 272 ft | 16 kts | 340° |
| 2026-05-06 23:55 | 54.65657 | -6.22787 | 272 ft | 15 kts | 340° |
| 2026-05-06 23:55 | 54.65734 | -6.22747 | 272 ft | 12 kts | 62° |
| 2026-05-06 23:55 | 54.65746 | -6.22595 | 272 ft | 19 kts | 84° |
| 2026-05-06 23:55 | 54.65764 | -6.22321 | 272 ft | 24 kts | 83° |
| 2026-05-06 23:56 | 54.65809 | -6.22037 | 276 ft | 26 kts | 67° |
| 2026-05-06 23:56 | 54.65888 | -6.21744 | 274 ft | 27 kts | 65° |
| 2026-05-06 23:56 | 54.65943 | -6.21543 | 274 ft | 28 kts | 65° |
| 2026-05-06 23:56 | 54.66011 | -6.21278 | 272 ft | 23 kts | 65° |
| 2026-05-06 23:57 | 54.66084 | -6.21228 | 272 ft | 10 kts | 334° |
| 2026-05-06 23:57 | 54.66164 | -6.21284 | 272 ft | 8 kts | 3° |
| 2026-05-06 23:57 | 54.66189 | -6.21220 | 275 ft | 4 kts | 66° |
| 2026-05-06 23:57 | 54.66194 | -6.21202 | 272 ft | 1 kts | 65° |
| 2026-05-06 23:58 | 54.66194 | -6.21201 | 272 ft | 0 kts | 65° |